Aviation Digital Data Service (ADDS)

Output produced by METARs form (0428 UTC 26 May 2018)
found at http://www.aviationweather.gov/adds/metars/
 
TAF SGAS 252300Z 2600/2700 00000KT 7000 NSC TX27/2619Z TN15/2609Z 
     PROB30 2608/2610 VRB03KT 5000 BR NSC 
     BECMG 2612/2615 06007KT CAVOK 
     BECMG 2617/2620 9999 SCT030 
     BECMG 2621/2700 09004KT CAVOK
       
TAF SGES 252300Z 2600/2700 00000KT 8000 NSC TX27/2619Z TN14/2609Z 
     PROB30 2608/2610 00000KT 1000 FG NSC 
     BECMG 2612/2615 09006KT CAVOK 
     BECMG 2617/2620 05007KT 9999 SCT030 
     BECMG 2621/2700 14003KT CAVOK
       
TAF SGCO 252300Z 2600/2700 14005KT CAVOK TX30/2619Z TN16/2609Z 
     BECMG 2617/2620 06008KT 9999 SCT030 
     BECMG 2621/2700 11004KT CAVOK